sensor_id;sensor_type;location;lat;lon;timestamp;pressure;altitude;pressure_sealevel;temperature;humidity
50125;BME280;36023;48.670;6.184;2023-02-16T00:01:56;100054.09;;;15.36;40.14
50125;BME280;36023;48.670;6.184;2023-02-16T00:04:28;100053.31;;;15.33;40.16
50125;BME280;36023;48.670;6.184;2023-02-16T00:06:55;100051.53;;;15.34;40.01
50125;BME280;36023;48.670;6.184;2023-02-16T00:09:22;100039.41;;;15.33;40.03
50125;BME280;36023;48.670;6.184;2023-02-16T00:11:49;100048.94;;;15.32;39.96
50125;BME280;36023;48.670;6.184;2023-02-16T00:14:35;100047.22;;;15.31;39.99
50125;BME280;36023;48.670;6.184;2023-02-16T00:17:01;100053.31;;;15.32;39.95
50125;BME280;36023;48.670;6.184;2023-02-16T00:21:56;100050.75;;;15.30;39.90
50125;BME280;36023;48.670;6.184;2023-02-16T00:24:23;100052.50;;;15.30;39.85
50125;BME280;36023;48.670;6.184;2023-02-16T00:26:51;100054.25;;;15.29;39.75
50125;BME280;36023;48.670;6.184;2023-02-16T00:29:20;100049.03;;;15.29;40.10
50125;BME280;36023;48.670;6.184;2023-02-16T00:31:48;100051.63;;;15.29;39.86
50125;BME280;36023;48.670;6.184;2023-02-16T00:36:52;100053.41;;;15.29;39.75
50125;BME280;36023;48.670;6.184;2023-02-16T00:39:22;100049.94;;;15.28;39.80
50125;BME280;36023;48.670;6.184;2023-02-16T00:41:50;100048.19;;;15.29;39.94
50125;BME280;36023;48.670;6.184;2023-02-16T00:44:39;100054.25;;;15.29;39.78
50125;BME280;36023;48.670;6.184;2023-02-16T00:49:42;100042.09;;;15.28;39.79
50125;BME280;36023;48.670;6.184;2023-02-16T00:54:46;100048.22;;;15.27;40.08
50125;BME280;36023;48.670;6.184;2023-02-16T00:57:17;100051.69;;;15.28;39.59
50125;BME280;36023;48.670;6.184;2023-02-16T00:59:43;100042.16;;;15.27;39.55
50125;BME280;36023;48.670;6.184;2023-02-16T01:02:10;100043.03;;;15.26;39.58
50125;BME280;36023;48.670;6.184;2023-02-16T01:04:36;100046.50;;;15.26;39.39
50125;BME280;36023;48.670;6.184;2023-02-16T01:07:01;100039.56;;;15.25;39.51
50125;BME280;36023;48.670;6.184;2023-02-16T01:09:46;100040.44;;;15.24;39.38
50125;BME280;36023;48.670;6.184;2023-02-16T01:12:30;100045.66;;;15.24;39.45
50125;BME280;36023;48.670;6.184;2023-02-16T01:14:56;100043.91;;;15.25;39.32
50125;BME280;36023;48.670;6.184;2023-02-16T01:17:23;100039.59;;;15.24;39.40
50125;BME280;36023;48.670;6.184;2023-02-16T01:19:52;100034.38;;;15.24;39.35
50125;BME280;36023;48.670;6.184;2023-02-16T01:22:18;100030.94;;;15.22;39.30
50125;BME280;36023;48.670;6.184;2023-02-16T01:24:43;100031.81;;;15.22;39.25
50125;BME280;36023;48.670;6.184;2023-02-16T01:27:11;100037.88;;;15.23;39.39
50125;BME280;36023;48.670;6.184;2023-02-16T01:29:37;100029.19;;;15.22;39.04
50125;BME280;36023;48.670;6.184;2023-02-16T01:32:03;100023.13;;;15.22;39.22
50125;BME280;36023;48.670;6.184;2023-02-16T01:34:30;100025.72;;;15.22;39.25
50125;BME280;36023;48.670;6.184;2023-02-16T01:36:57;100037.06;;;15.21;39.23
50125;BME280;36023;48.670;6.184;2023-02-16T01:39:22;100030.97;;;15.20;39.21
50125;BME280;36023;48.670;6.184;2023-02-16T01:42:26;100024.06;;;15.19;39.03
50125;BME280;36023;48.670;6.184;2023-02-16T01:45:02;100033.63;;;15.19;38.98
50125;BME280;36023;48.670;6.184;2023-02-16T01:49:56;100026.72;;;15.18;38.85
50125;BME280;36023;48.670;6.184;2023-02-16T01:52:26;100029.31;;;15.18;38.91
50125;BME280;36023;48.670;6.184;2023-02-16T01:57:42;100018.00;;;15.17;38.96
50125;BME280;36023;48.670;6.184;2023-02-16T02:00:14;100021.50;;;15.16;39.07
50125;BME280;36023;48.670;6.184;2023-02-16T02:02:49;100020.66;;;15.16;38.94
50125;BME280;36023;48.670;6.184;2023-02-16T02:05:27;100019.78;;;15.15;38.90
50125;BME280;36023;48.670;6.184;2023-02-16T02:10:35;100006.75;;;15.15;38.87
50125;BME280;36023;48.670;6.184;2023-02-16T02:16:03;100012.91;;;15.13;38.78
50125;BME280;36023;48.670;6.184;2023-02-16T02:18:30;100012.91;;;15.13;38.84
50125;BME280;36023;48.670;6.184;2023-02-16T02:27:03;100010.28;;;15.13;38.90
50125;BME280;36023;48.670;6.184;2023-02-16T02:29:39;100009.41;;;15.14;38.99
50125;BME280;36023;48.670;6.184;2023-02-16T02:35:31;100007.66;;;15.14;38.76
50125;BME280;36023;48.670;6.184;2023-02-16T02:46:12;100012.03;;;15.12;38.78
50125;BME280;36023;48.670;6.184;2023-02-16T02:48:40;100013.81;;;15.12;38.78
50125;BME280;36023;48.670;6.184;2023-02-16T02:51:12;100008.59;;;15.12;38.77
50125;BME280;36023;48.670;6.184;2023-02-16T02:54:17;100005.97;;;15.12;38.78
50125;BME280;36023;48.670;6.184;2023-02-16T02:57:10;100009.47;;;15.11;38.85
50125;BME280;36023;48.670;6.184;2023-02-16T03:00:19;100012.09;;;15.11;38.80
50125;BME280;36023;48.670;6.184;2023-02-16T03:03:10;100008.63;;;15.10;38.77
50125;BME280;36023;48.670;6.184;2023-02-16T03:05:44;100006.00;;;15.10;38.86
50125;BME280;36023;48.670;6.184;2023-02-16T03:08:13;100012.09;;;15.11;38.77
50125;BME280;36023;48.670;6.184;2023-02-16T03:10:49;100005.13;;;15.10;38.75
50125;BME280;36023;48.670;6.184;2023-02-16T03:13:38;100011.25;;;15.09;38.66
50125;BME280;36023;48.670;6.184;2023-02-16T03:16:09;100004.28;;;15.09;38.62
50125;BME280;36023;48.670;6.184;2023-02-16T03:18:39;99999.94;;;15.08;38.58
50125;BME280;36023;48.670;6.184;2023-02-16T03:21:26;99998.25;;;15.07;38.57
50125;BME280;36023;48.670;6.184;2023-02-16T03:24:14;100004.31;;;15.08;38.72
50125;BME280;36023;48.670;6.184;2023-02-16T03:27:01;100002.56;;;15.08;38.52
50125;BME280;36023;48.670;6.184;2023-02-16T03:29:48;99996.53;;;15.06;38.51
50125;BME280;36023;48.670;6.184;2023-02-16T03:32:17;99998.28;;;15.05;38.51
50125;BME280;36023;48.670;6.184;2023-02-16T03:34:43;99994.78;;;15.07;38.59
50125;BME280;36023;48.670;6.184;2023-02-16T03:37:09;99997.44;;;15.05;38.44
50125;BME280;36023;48.670;6.184;2023-02-16T03:39:35;99997.44;;;15.05;38.43
50125;BME280;36023;48.670;6.184;2023-02-16T03:42:21;100000.03;;;15.05;38.45
50125;BME280;36023;48.670;6.184;2023-02-16T03:44:47;99998.31;;;15.04;38.42
50125;BME280;36023;48.670;6.184;2023-02-16T03:47:13;100003.53;;;15.04;38.37
50125;BME280;36023;48.670;6.184;2023-02-16T03:49:39;100005.28;;;15.03;38.33
50125;BME280;36023;48.670;6.184;2023-02-16T03:52:04;100008.81;;;15.02;38.39
50125;BME280;36023;48.670;6.184;2023-02-16T03:54:30;100007.06;;;15.03;38.38
50125;BME280;36023;48.670;6.184;2023-02-16T03:56:55;100002.72;;;15.02;38.31
50125;BME280;36023;48.670;6.184;2023-02-16T03:59:21;100004.44;;;15.01;38.42
50125;BME280;36023;48.670;6.184;2023-02-16T04:01:47;100002.72;;;15.02;38.39
50125;BME280;36023;48.670;6.184;2023-02-16T04:04:12;99994.91;;;15.00;38.30
50125;BME280;36023;48.670;6.184;2023-02-16T04:06:39;99998.41;;;14.99;38.39
50125;BME280;36023;48.670;6.184;2023-02-16T04:09:05;100002.78;;;14.99;38.40
50125;BME280;36023;48.670;6.184;2023-02-16T04:11:31;100001.94;;;14.98;38.24
50125;BME280;36023;48.670;6.184;2023-02-16T04:14:15;100007.16;;;14.98;38.29
50125;BME280;36023;48.670;6.184;2023-02-16T04:16:41;100011.50;;;14.98;38.19
50125;BME280;36023;48.670;6.184;2023-02-16T04:19:06;100005.44;;;14.97;38.28
50125;BME280;36023;48.670;6.184;2023-02-16T04:21:32;100011.50;;;14.98;38.21
50125;BME280;36023;48.670;6.184;2023-02-16T04:23:58;100006.31;;;14.96;38.32
50125;BME280;36023;48.670;6.184;2023-02-16T04:26:24;100013.31;;;14.96;38.23
50125;BME280;36023;48.670;6.184;2023-02-16T04:28:50;100010.69;;;14.96;38.11
50125;BME280;36023;48.670;6.184;2023-02-16T04:31:16;100013.31;;;14.96;38.25
50125;BME280;36023;48.670;6.184;2023-02-16T04:33:41;100019.41;;;14.95;38.07
50125;BME280;36023;48.670;6.184;2023-02-16T04:36:07;100013.34;;;14.94;38.12
50125;BME280;36023;48.670;6.184;2023-02-16T04:38:33;100003.75;;;14.95;38.22
50125;BME280;36023;48.670;6.184;2023-02-16T04:40:59;100014.19;;;14.95;38.10
50125;BME280;36023;48.670;6.184;2023-02-16T04:43:24;100010.72;;;14.94;38.19
50125;BME280;36023;48.670;6.184;2023-02-16T04:45:51;100011.59;;;14.95;38.16
50125;BME280;36023;48.670;6.184;2023-02-16T04:48:17;100018.56;;;14.94;38.12
50125;BME280;36023;48.670;6.184;2023-02-16T04:50:43;100015.94;;;14.94;37.96
50125;BME280;36023;48.670;6.184;2023-02-16T04:53:08;100014.22;;;14.93;38.03
50125;BME280;36023;48.670;6.184;2023-02-16T04:55:34;100011.59;;;14.93;38.11
50125;BME280;36023;48.670;6.184;2023-02-16T04:58:00;100011.59;;;14.93;37.85
50125;BME280;36023;48.670;6.184;2023-02-16T05:00:25;100002.06;;;14.92;37.87
50125;BME280;36023;48.670;6.184;2023-02-16T05:02:51;100007.28;;;14.92;38.07
50125;BME280;36023;48.670;6.184;2023-02-16T05:05:17;99999.44;;;14.92;38.08
50125;BME280;36023;48.670;6.184;2023-02-16T05:07:43;100004.66;;;14.92;38.06
50125;BME280;36023;48.670;6.184;2023-02-16T05:10:10;100008.13;;;14.93;38.08
50125;BME280;36023;48.670;6.184;2023-02-16T05:12:36;100002.06;;;14.92;38.02
50125;BME280;36023;48.670;6.184;2023-02-16T05:15:20;100015.16;;;14.91;37.88
50125;BME280;36023;48.670;6.184;2023-02-16T05:17:46;100018.59;;;14.91;37.93
50125;BME280;36023;48.670;6.184;2023-02-16T05:20:12;100011.69;;;14.90;38.04
50125;BME280;36023;48.670;6.184;2023-02-16T05:22:38;100002.97;;;14.91;37.72
50125;BME280;36023;48.670;6.184;2023-02-16T05:25:05;100007.31;;;14.91;37.88
50125;BME280;36023;48.670;6.184;2023-02-16T05:27:31;99994.28;;;14.91;37.66
50125;BME280;36023;48.670;6.184;2023-02-16T05:29:59;99987.34;;;14.90;37.88
50125;BME280;36023;48.670;6.184;2023-02-16T05:32:27;99990.84;;;14.89;37.90
50125;BME280;36023;48.670;6.184;2023-02-16T05:34:52;99999.53;;;14.89;37.70
50125;BME280;36023;48.670;6.184;2023-02-16T05:37:18;100008.22;;;14.90;37.79
50125;BME280;36023;48.670;6.184;2023-02-16T05:39:44;100010.81;;;14.90;37.97
50125;BME280;36023;48.670;6.184;2023-02-16T05:42:09;100005.53;;;14.93;38.00
50125;BME280;36023;48.670;6.184;2023-02-16T05:44:36;100006.31;;;14.96;38.02
50125;BME280;36023;48.670;6.184;2023-02-16T05:47:03;100000.13;;;15.00;38.02
50125;BME280;36023;48.670;6.184;2023-02-16T05:49:29;100004.31;;;15.08;37.92
50125;BME280;36023;48.670;6.184;2023-02-16T05:51:54;100018.06;;;15.14;37.97
50125;BME280;36023;48.670;6.184;2023-02-16T05:54:20;100016.19;;;15.21;38.14
50125;BME280;36023;48.670;6.184;2023-02-16T05:56:50;100023.84;;;15.28;37.91
50125;BME280;36023;48.670;6.184;2023-02-16T05:59:17;100020.22;;;15.34;37.68
50125;BME280;36023;48.670;6.184;2023-02-16T06:01:43;100010.47;;;15.41;37.70
50125;BME280;36023;48.670;6.184;2023-02-16T06:04:11;100016.41;;;15.47;37.71
50125;BME280;36023;48.670;6.184;2023-02-16T06:06:38;100024.13;;;15.52;37.55
50125;BME280;36023;48.670;6.184;2023-02-16T06:09:05;100026.63;;;15.56;37.57
50125;BME280;36023;48.670;6.184;2023-02-16T06:11:32;100036.06;;;15.62;37.43
50125;BME280;36023;48.670;6.184;2023-02-16T06:14:06;100023.81;;;15.66;37.35
50125;BME280;36023;48.670;6.184;2023-02-16T06:16:34;100031.50;;;15.70;37.14
50125;BME280;36023;48.670;6.184;2023-02-16T06:19:00;100039.28;;;15.73;37.27
50125;BME280;36023;48.670;6.184;2023-02-16T06:21:27;100036.53;;;15.78;37.23
50125;BME280;36023;48.670;6.184;2023-02-16T06:23:53;100037.34;;;15.81;37.14
50125;BME280;36023;48.670;6.184;2023-02-16T06:26:19;100032.03;;;15.84;37.14
50125;BME280;36023;48.670;6.184;2023-02-16T06:28:45;100038.88;;;15.88;37.12
50125;BME280;36023;48.670;6.184;2023-02-16T06:31:12;100037.09;;;15.91;37.04
50125;BME280;36023;48.670;6.184;2023-02-16T06:33:37;100034.38;;;15.94;36.91
50125;BME280;36023;48.670;6.184;2023-02-16T06:36:04;100030.84;;;15.96;37.01
50125;BME280;36023;48.670;6.184;2023-02-16T06:38:30;100032.56;;;15.97;36.93
50125;BME280;36023;48.670;6.184;2023-02-16T06:40:55;100041.13;;;16.02;36.88
50125;BME280;36023;48.670;6.184;2023-02-16T06:43:21;100045.41;;;16.05;36.87
50125;BME280;36023;48.670;6.184;2023-02-16T06:45:47;100041.00;;;16.07;36.61
50125;BME280;36023;48.670;6.184;2023-02-16T06:48:13;100043.56;;;16.08;36.78
50125;BME280;36023;48.670;6.184;2023-02-16T06:50:38;100047.88;;;16.11;36.65
50125;BME280;36023;48.670;6.184;2023-02-16T06:53:04;100047.81;;;16.12;36.64
50125;BME280;36023;48.670;6.184;2023-02-16T06:55:30;100052.97;;;16.15;36.70
50125;BME280;36023;48.670;6.184;2023-02-16T06:58:05;100051.16;;;16.17;36.58
50125;BME280;36023;48.670;6.184;2023-02-16T07:00:31;100049.38;;;16.20;36.48
50125;BME280;36023;48.670;6.184;2023-02-16T07:02:57;100043.19;;;16.22;36.56
50125;BME280;36023;48.670;6.184;2023-02-16T07:05:24;100039.63;;;16.25;36.45
50125;BME280;36023;48.670;6.184;2023-02-16T07:07:50;100043.97;;;16.26;36.39
50125;BME280;36023;48.670;6.184;2023-02-16T07:10:18;100042.19;;;16.28;36.30
50125;BME280;36023;48.670;6.184;2023-02-16T07:12:45;100043.88;;;16.29;36.42
50125;BME280;36023;48.670;6.184;2023-02-16T07:15:10;100038.63;;;16.30;36.33
50125;BME280;36023;48.670;6.184;2023-02-16T07:17:36;100043.84;;;16.30;36.21
50125;BME280;36023;48.670;6.184;2023-02-16T07:20:03;100042.03;;;16.32;36.29
50125;BME280;36023;48.670;6.184;2023-02-16T07:22:30;100043.72;;;16.35;36.17
50125;BME280;36023;48.670;6.184;2023-02-16T07:24:56;100055.91;;;16.36;36.20
50125;BME280;36023;48.670;6.184;2023-02-16T07:27:22;100048.91;;;16.36;36.30
50125;BME280;36023;48.670;6.184;2023-02-16T07:29:48;100061.03;;;16.39;36.14
50125;BME280;36023;48.670;6.184;2023-02-16T07:32:14;100059.31;;;16.38;36.23
50125;BME280;36023;48.670;6.184;2023-02-16T07:34:42;100059.31;;;16.38;36.21
50125;BME280;36023;48.670;6.184;2023-02-16T07:37:08;100066.31;;;16.37;36.15
50125;BME280;36023;48.670;6.184;2023-02-16T07:39:33;100068.91;;;16.37;36.01
50125;BME280;36023;48.670;6.184;2023-02-16T07:41:59;100070.72;;;16.35;36.11
50125;BME280;36023;48.670;6.184;2023-02-16T07:44:25;100075.09;;;16.35;36.13
50125;BME280;36023;48.670;6.184;2023-02-16T07:46:50;100073.34;;;16.34;36.09
50125;BME280;36023;48.670;6.184;2023-02-16T07:49:16;100066.41;;;16.33;36.03
50125;BME280;36023;48.670;6.184;2023-02-16T07:51:42;100075.22;;;16.30;36.19
50125;BME280;36023;48.670;6.184;2023-02-16T07:54:10;100063.91;;;16.30;36.07
50125;BME280;36023;48.670;6.184;2023-02-16T07:56:37;100061.38;;;16.27;36.16
50125;BME280;36023;48.670;6.184;2023-02-16T07:59:03;100060.50;;;16.26;36.08
50125;BME280;36023;48.670;6.184;2023-02-16T08:01:29;100064.91;;;16.24;36.08
50125;BME280;36023;48.670;6.184;2023-02-16T08:03:55;100071.03;;;16.23;35.92
50125;BME280;36023;48.670;6.184;2023-02-16T08:06:22;100067.56;;;16.23;36.06
50125;BME280;36023;48.670;6.184;2023-02-16T08:08:47;100068.47;;;16.22;36.08
50125;BME280;36023;48.670;6.184;2023-02-16T08:11:16;100070.28;;;16.20;36.16
50125;BME280;36023;48.670;6.184;2023-02-16T08:13:42;100069.44;;;16.19;36.18
50125;BME280;36023;48.670;6.184;2023-02-16T08:16:10;100071.16;;;16.20;36.25
50125;BME280;36023;48.670;6.184;2023-02-16T08:18:37;100070.28;;;16.20;36.32
50125;BME280;36023;48.670;6.184;2023-02-16T08:21:15;100070.28;;;16.20;36.27
50125;BME280;36023;48.670;6.184;2023-02-16T08:23:46;100076.31;;;16.22;36.45
50125;BME280;36023;48.670;6.184;2023-02-16T08:26:16;100078.94;;;16.22;36.59
50125;BME280;36023;48.670;6.184;2023-02-16T08:28:43;100079.69;;;16.25;36.56
50125;BME280;36023;48.670;6.184;2023-02-16T08:31:16;100082.28;;;16.27;36.58
50125;BME280;36023;48.670;6.184;2023-02-16T08:33:44;100076.97;;;16.30;36.54
50125;BME280;36023;48.670;6.184;2023-02-16T08:36:20;100071.69;;;16.31;36.60
50125;BME280;36023;48.670;6.184;2023-02-16T08:38:49;100072.47;;;16.35;36.96
50125;BME280;36023;48.670;6.184;2023-02-16T08:41:23;100075.75;;;16.41;37.53
50125;BME280;36023;48.670;6.184;2023-02-16T08:43:49;100076.44;;;16.48;38.02
50125;BME280;36023;48.670;6.184;2023-02-16T08:46:16;100074.47;;;16.56;38.64
50125;BME280;36023;48.670;6.184;2023-02-16T08:48:44;100076.97;;;16.61;39.20
50125;BME280;36023;48.670;6.184;2023-02-16T08:51:18;100082.09;;;16.64;39.51
50125;BME280;36023;48.670;6.184;2023-02-16T08:53:46;100080.31;;;16.66;39.84
50125;BME280;36023;48.670;6.184;2023-02-16T08:56:14;100075.97;;;16.65;40.12
50125;BME280;36023;48.670;6.184;2023-02-16T08:58:41;100072.50;;;16.64;40.16
50125;BME280;36023;48.670;6.184;2023-02-16T09:01:07;100072.53;;;16.63;40.41
50125;BME280;36023;48.670;6.184;2023-02-16T09:03:34;100064.75;;;16.61;40.74
50125;BME280;36023;48.670;6.184;2023-02-16T09:06:02;100072.59;;;16.61;40.83
50125;BME280;36023;48.670;6.184;2023-02-16T09:08:28;100066.56;;;16.59;40.74
50125;BME280;36023;48.670;6.184;2023-02-16T09:11:01;100071.84;;;16.58;41.09
50125;BME280;36023;48.670;6.184;2023-02-16T09:13:27;100069.25;;;16.56;41.13
50125;BME280;36023;48.670;6.184;2023-02-16T09:15:52;100068.44;;;16.54;41.37
50125;BME280;36023;48.670;6.184;2023-02-16T09:18:18;100073.72;;;16.53;41.37
50125;BME280;36023;48.670;6.184;2023-02-16T09:20:44;100066.81;;;16.50;41.44
50125;BME280;36023;48.670;6.184;2023-02-16T09:23:10;100081.69;;;16.48;41.53
50125;BME280;36023;48.670;6.184;2023-02-16T09:25:39;100071.31;;;16.45;41.49
50125;BME280;36023;48.670;6.184;2023-02-16T09:28:06;100072.28;;;16.41;41.21
50125;BME280;36023;48.670;6.184;2023-02-16T09:30:36;100075.03;;;16.36;41.56
50125;BME280;36023;48.670;6.184;2023-02-16T09:33:02;100080.38;;;16.32;41.56
50125;BME280;36023;48.670;6.184;2023-02-16T09:35:29;100070.94;;;16.26;41.50
50125;BME280;36023;48.670;6.184;2023-02-16T09:37:55;100071.09;;;16.22;41.64
50125;BME280;36023;48.670;6.184;2023-02-16T09:40:22;100066.84;;;16.17;41.70
50125;BME280;36023;48.670;6.184;2023-02-16T09:45:31;100068.78;;;16.09;41.60
50125;BME280;36023;48.670;6.184;2023-02-16T09:48:04;100069.75;;;16.07;41.72
50125;BME280;36023;48.670;6.184;2023-02-16T09:50:33;100066.38;;;16.03;41.61
50125;BME280;36023;48.670;6.184;2023-02-16T09:53:06;100062.00;;;16.02;41.68
50125;BME280;36023;48.670;6.184;2023-02-16T09:55:56;100061.97;;;16.05;41.61
50125;BME280;36023;48.670;6.184;2023-02-16T10:01:33;100069.84;;;16.02;41.48
50125;BME280;36023;48.670;6.184;2023-02-16T10:06:50;100064.91;;;15.92;41.53
50125;BME280;36023;48.670;6.184;2023-02-16T10:09:24;100069.28;;;15.91;41.96
50125;BME280;36023;48.670;6.184;2023-02-16T10:12:00;100069.28;;;15.91;41.78
50125;BME280;36023;48.670;6.184;2023-02-16T10:22:50;100064.78;;;15.98;41.89
50125;BME280;36023;48.670;6.184;2023-02-16T10:25:24;100064.78;;;15.98;41.88
50125;BME280;36023;48.670;6.184;2023-02-16T10:28:18;100059.53;;;15.98;42.03
50125;BME280;36023;48.670;6.184;2023-02-16T10:30:49;100058.63;;;15.99;41.93
50125;BME280;36023;48.670;6.184;2023-02-16T10:33:40;100059.44;;;16.01;41.77
50125;BME280;36023;48.670;6.184;2023-02-16T10:36:20;100056.78;;;16.02;41.84
50125;BME280;36023;48.670;6.184;2023-02-16T10:39:02;100055.03;;;16.03;41.89
50125;BME280;36023;48.670;6.184;2023-02-16T10:41:41;100047.19;;;16.04;41.70
50125;BME280;36023;48.670;6.184;2023-02-16T10:44:30;100050.59;;;16.06;41.74
50125;BME280;36023;48.670;6.184;2023-02-16T10:47:03;100047.09;;;16.07;41.76
50125;BME280;36023;48.670;6.184;2023-02-16T10:49:30;100055.78;;;16.08;41.54
50125;BME280;36023;48.670;6.184;2023-02-16T10:52:01;100056.63;;;16.08;41.68
50125;BME280;36023;48.670;6.184;2023-02-16T10:54:30;100052.22;;;16.10;41.76
50125;BME280;36023;48.670;6.184;2023-02-16T10:57:19;100051.34;;;16.11;41.65
50125;BME280;36023;48.670;6.184;2023-02-16T10:59:46;100056.56;;;16.11;41.78
50125;BME280;36023;48.670;6.184;2023-02-16T11:02:37;100046.13;;;16.11;41.81
50125;BME280;36023;48.670;6.184;2023-02-16T11:07:57;100044.22;;;16.16;41.70
50125;BME280;36023;48.670;6.184;2023-02-16T11:13:06;100038.88;;;16.21;42.20
50125;BME280;36023;48.670;6.184;2023-02-16T11:15:35;100043.16;;;16.24;41.98
50125;BME280;36023;48.670;6.184;2023-02-16T11:18:07;100037.91;;;16.24;42.30
50125;BME280;36023;48.670;6.184;2023-02-16T11:20:53;100048.31;;;16.25;42.28
50125;BME280;36023;48.670;6.184;2023-02-16T11:28:30;100045.69;;;16.27;42.54
50125;BME280;36023;48.670;6.184;2023-02-16T11:33:37;100041.34;;;16.26;42.50
50125;BME280;36023;48.670;6.184;2023-02-16T11:36:20;100031.75;;;16.26;42.35
50125;BME280;36023;48.670;6.184;2023-02-16T11:39:04;100033.50;;;16.26;42.79
50125;BME280;36023;48.670;6.184;2023-02-16T11:41:32;100030.88;;;16.26;42.60
50125;BME280;36023;48.670;6.184;2023-02-16T11:44:00;100022.25;;;16.24;42.40
50125;BME280;36023;48.670;6.184;2023-02-16T11:46:28;100016.22;;;16.22;42.52
50125;BME280;36023;48.670;6.184;2023-02-16T11:49:27;100018.88;;;16.20;42.57
50125;BME280;36023;48.670;6.184;2023-02-16T11:51:54;100018.03;;;16.18;42.72
50125;BME280;36023;48.670;6.184;2023-02-16T11:54:21;100016.38;;;16.15;42.69
50125;BME280;36023;48.670;6.184;2023-02-16T11:57:06;100023.41;;;16.13;42.77
50125;BME280;36023;48.670;6.184;2023-02-16T11:59:36;100022.50;;;16.14;42.71
50125;BME280;36023;48.670;6.184;2023-02-16T12:12:44;100011.56;;;16.00;42.63
50125;BME280;36023;48.670;6.184;2023-02-16T12:20:47;100002.00;;;15.99;42.75
50125;BME280;36023;48.670;6.184;2023-02-16T12:23:22;99991.63;;;15.98;42.88
50125;BME280;36023;48.670;6.184;2023-02-16T12:26:19;99992.50;;;15.97;42.93
50125;BME280;36023;48.670;6.184;2023-02-16T12:34:36;99979.41;;;15.98;43.29
50125;BME280;36023;48.670;6.184;2023-02-16T12:45:31;99973.22;;;16.01;43.48
50125;BME280;36023;48.670;6.184;2023-02-16T12:50:34;99967.94;;;16.02;43.67
50125;BME280;36023;48.670;6.184;2023-02-16T12:53:07;99971.34;;;16.06;43.74
50125;BME280;36023;48.670;6.184;2023-02-16T12:55:49;99969.59;;;16.06;43.69
50125;BME280;36023;48.670;6.184;2023-02-16T13:00:52;99952.97;;;16.09;43.65
50125;BME280;36023;48.670;6.184;2023-02-16T13:03:38;99941.59;;;16.10;43.63
50125;BME280;36023;48.670;6.184;2023-02-16T13:08:55;99929.31;;;16.13;43.53
50125;BME280;36023;48.670;6.184;2023-02-16T13:11:25;99922.28;;;16.15;43.66
50125;BME280;36023;48.670;6.184;2023-02-16T13:13:59;99919.69;;;16.15;43.61
50125;BME280;36023;48.670;6.184;2023-02-16T13:16:43;99919.63;;;16.17;43.52
50125;BME280;36023;48.670;6.184;2023-02-16T13:19:14;99930.94;;;16.17;43.35
50125;BME280;36023;48.670;6.184;2023-02-16T13:29:53;99945.59;;;16.23;43.50
50125;BME280;36023;48.670;6.184;2023-02-16T13:35:30;99935.13;;;16.23;43.32
50125;BME280;36023;48.670;6.184;2023-02-16T13:43:36;99929.06;;;16.23;43.39
50125;BME280;36023;48.670;6.184;2023-02-16T13:46:24;99929.84;;;16.25;43.49
50125;BME280;36023;48.670;6.184;2023-02-16T13:48:52;99937.69;;;16.25;43.43
50125;BME280;36023;48.670;6.184;2023-02-16T13:51:21;99936.91;;;16.23;43.24
50125;BME280;36023;48.670;6.184;2023-02-16T13:53:56;99940.34;;;16.23;43.34
50125;BME280;36023;48.670;6.184;2023-02-16T14:01:51;99923.72;;;16.26;43.37
50125;BME280;36023;48.670;6.184;2023-02-16T14:06:48;99915.00;;;16.27;43.10
50125;BME280;36023;48.670;6.184;2023-02-16T14:14:54;99915.75;;;16.30;43.28
50125;BME280;36023;48.670;6.184;2023-02-16T14:19:56;99915.69;;;16.32;43.44
50125;BME280;36023;48.670;6.184;2023-02-16T14:22:38;99916.59;;;16.31;43.34
50125;BME280;36023;48.670;6.184;2023-02-16T14:30:35;99907.00;;;16.31;43.30
50125;BME280;36023;48.670;6.184;2023-02-16T14:38:34;99916.50;;;16.34;43.38
50125;BME280;36023;48.670;6.184;2023-02-16T14:41:09;99916.50;;;16.34;43.41
50125;BME280;36023;48.670;6.184;2023-02-16T14:43:46;99909.56;;;16.33;43.21
50125;BME280;36023;48.670;6.184;2023-02-16T14:57:54;99895.59;;;16.34;43.25
50125;BME280;36023;48.670;6.184;2023-02-16T15:00:26;99897.34;;;16.35;43.20
50125;BME280;36023;48.670;6.184;2023-02-16T15:03:12;99900.81;;;16.34;43.35
50125;BME280;36023;48.670;6.184;2023-02-16T15:05:39;99900.81;;;16.35;43.46
50125;BME280;36023;48.670;6.184;2023-02-16T15:08:13;99898.13;;;16.37;43.25
50125;BME280;36023;48.670;6.184;2023-02-16T15:10:43;99897.16;;;16.39;43.26
50125;BME280;36023;48.670;6.184;2023-02-16T15:13:41;99902.41;;;16.39;43.21
50125;BME280;36023;48.670;6.184;2023-02-16T15:16:09;99898.06;;;16.38;43.06
50125;BME280;36023;48.670;6.184;2023-02-16T15:18:45;99903.31;;;16.38;43.20
50125;BME280;36023;48.670;6.184;2023-02-16T15:21:17;99901.59;;;16.37;43.13
50125;BME280;36023;48.670;6.184;2023-02-16T15:23:55;99902.50;;;16.36;43.26
50125;BME280;36023;48.670;6.184;2023-02-16T15:26:32;99899.03;;;16.36;43.18
50125;BME280;36023;48.670;6.184;2023-02-16T15:29:18;99900.81;;;16.35;43.04
50125;BME280;36023;48.670;6.184;2023-02-16T15:31:46;99902.56;;;16.35;43.10
50125;BME280;36023;48.670;6.184;2023-02-16T15:34:26;99902.56;;;16.35;42.99
50125;BME280;36023;48.670;6.184;2023-02-16T15:36:53;99904.25;;;16.36;43.07
50125;BME280;36023;48.670;6.184;2023-02-16T15:39:30;99899.03;;;16.36;43.13
50125;BME280;36023;48.670;6.184;2023-02-16T15:42:19;99892.91;;;16.37;43.00
50125;BME280;36023;48.670;6.184;2023-02-16T15:44:45;99892.00;;;16.38;42.95
50125;BME280;36023;48.670;6.184;2023-02-16T15:47:15;99880.63;;;16.39;43.01
50125;BME280;36023;48.670;6.184;2023-02-16T15:49:43;99894.50;;;16.41;42.95
50125;BME280;36023;48.670;6.184;2023-02-16T15:52:16;99883.25;;;16.39;42.70
50125;BME280;36023;48.670;6.184;2023-02-16T15:54:44;99884.09;;;16.39;42.82